createdAt,value
2022-11-29T00:00:15.343Z,8.48
2022-11-29T00:02:43.492Z,8.77
2022-11-29T00:05:10.255Z,8.90
2022-11-29T00:07:37.029Z,9.60
2022-11-29T00:10:04.170Z,8.52
2022-11-29T00:12:30.814Z,7.65
2022-11-29T00:14:57.453Z,8.65
2022-11-29T00:17:24.179Z,8.37
2022-11-29T00:19:52.248Z,8.25
2022-11-29T00:22:19.009Z,7.43
2022-11-29T00:24:45.925Z,8.35
2022-11-29T00:27:12.776Z,8.68
2022-11-29T00:29:39.412Z,8.68
2022-11-29T00:32:06.097Z,8.88
2022-11-29T00:34:32.849Z,8.60
2022-11-29T00:37:00.913Z,9.45
2022-11-29T00:39:27.605Z,9.13
2022-11-29T00:41:54.241Z,8.43
2022-11-29T00:44:20.992Z,8.65
2022-11-29T00:46:48.443Z,8.75
2022-11-29T00:49:15.218Z,9.02
2022-11-29T00:51:41.884Z,8.75
2022-11-29T00:54:09.870Z,8.45
2022-11-29T00:56:36.559Z,9.32
2022-11-29T00:59:03.197Z,9.30
2022-11-29T01:01:29.984Z,8.68
2022-11-29T01:03:56.736Z,7.78
2022-11-29T01:06:23.462Z,8.68
2022-11-29T01:08:50.174Z,8.52
2022-11-29T01:11:20.704Z,8.18
2022-11-29T01:13:47.901Z,8.48
2022-11-29T01:16:16.615Z,8.93
2022-11-29T01:18:43.526Z,8.85
2022-11-29T01:21:12.949Z,8.90
2022-11-29T01:23:40.064Z,8.38
2022-11-29T01:26:08.468Z,8.48
2022-11-29T01:28:37.940Z,8.80
2022-11-29T01:31:08.910Z,9.18
2022-11-29T01:33:36.522Z,8.20
2022-11-29T01:36:04.044Z,8.23
2022-11-29T01:38:30.756Z,7.93
2022-11-29T01:40:59.931Z,8.32
2022-11-29T01:43:26.994Z,9.38
2022-11-29T01:45:55.147Z,8.15
2022-11-29T01:48:23.744Z,9.65
2022-11-29T01:50:51.243Z,9.50
2022-11-29T01:53:17.954Z,9.60
2022-11-29T01:55:48.443Z,9.13
2022-11-29T01:58:15.423Z,9.73
2022-11-29T02:00:42.183Z,9.63
2022-11-29T02:03:12.214Z,10.27
2022-11-29T02:05:42.103Z,9.20
2022-11-29T02:08:10.957Z,9.65
2022-11-29T02:10:51.018Z,9.35
2022-11-29T02:13:27.254Z,9.50
2022-11-29T02:16:02.549Z,9.90
2022-11-29T02:18:40.868Z,9.20
2022-11-29T02:21:38.557Z,9.70
2022-11-29T02:24:46.944Z,9.10
2022-11-29T02:27:47.294Z,9.07
2022-11-29T02:30:22.885Z,9.57
2022-11-29T02:33:38.696Z,9.20
2022-11-29T02:36:38.432Z,9.32
2022-11-29T02:39:44.868Z,8.25
2022-11-29T02:42:34.415Z,9.10
2022-11-29T02:45:10.505Z,8.70
2022-11-29T02:47:52.679Z,9.27
2022-11-29T02:50:34.897Z,9.73
2022-11-29T02:53:09.351Z,9.30
2022-11-29T02:55:43.953Z,7.85
2022-11-29T02:58:19.130Z,9.35
2022-11-29T03:00:57.302Z,9.07
2022-11-29T03:03:30.854Z,8.67
2022-11-29T03:06:07.985Z,8.68
2022-11-29T03:08:40.785Z,8.95
2022-11-29T03:11:20.097Z,8.90
2022-11-29T03:13:53.815Z,9.07
2022-11-29T03:16:37.101Z,9.10
2022-11-29T03:19:29.393Z,9.20
2022-11-29T03:22:07.271Z,8.48
2022-11-29T03:24:40.084Z,8.07
2022-11-29T03:27:11.378Z,9.68
2022-11-29T03:29:43.433Z,9.82
2022-11-29T03:32:16.819Z,9.48
2022-11-29T03:34:57.440Z,9.05
2022-11-29T03:37:35.213Z,8.70
2022-11-29T03:40:06.407Z,8.73
2022-11-29T03:42:38.447Z,9.40
2022-11-29T03:45:10.918Z,8.93
2022-11-29T03:47:41.940Z,9.20
2022-11-29T03:50:13.997Z,9.35
2022-11-29T03:52:49.628Z,9.63
2022-11-29T03:55:31.215Z,8.48
2022-11-29T03:58:10.249Z,9.15
2022-11-29T04:00:55.919Z,8.73
2022-11-29T04:03:37.866Z,9.75
2022-11-29T04:06:18.327Z,9.32
2022-11-29T04:09:27.257Z,8.33
2022-11-29T04:12:30.010Z,9.02
2022-11-29T04:15:24.770Z,9.27
2022-11-29T04:18:31.714Z,9.27
2022-11-29T04:21:32.890Z,9.70
2022-11-29T04:24:24.674Z,9.43
2022-11-29T04:27:38.442Z,9.40
2022-11-29T04:30:13.357Z,9.70
2022-11-29T04:33:17.823Z,9.48
2022-11-29T04:36:28.514Z,9.73
2022-11-29T04:39:24.475Z,10.38
2022-11-29T04:42:27.694Z,9.30
2022-11-29T04:45:24.653Z,9.60
2022-11-29T04:48:03.111Z,9.73
2022-11-29T04:50:46.049Z,9.73
2022-11-29T04:53:30.827Z,10.53
2022-11-29T04:56:07.840Z,10.93
2022-11-29T04:58:40.931Z,10.82
2022-11-29T05:01:20.769Z,10.50
2022-11-29T05:03:57.233Z,10.32
2022-11-29T05:06:29.849Z,11.40
2022-11-29T05:09:04.530Z,10.13
2022-11-29T05:11:44.526Z,10.77
2022-11-29T05:14:22.879Z,10.98
2022-11-29T05:16:58.027Z,10.32
2022-11-29T05:19:55.118Z,11.02
2022-11-29T05:22:33.415Z,10.38
2022-11-29T05:25:21.518Z,10.65
2022-11-29T05:27:52.419Z,11.32
2022-11-29T05:30:22.973Z,10.90
2022-11-29T05:32:56.833Z,11.65
2022-11-29T05:35:39.679Z,11.98
2022-11-29T05:38:21.806Z,12.13
2022-11-29T05:40:59.040Z,11.25
2022-11-29T05:43:44.782Z,11.40
2022-11-29T05:46:19.927Z,12.20
2022-11-29T05:48:54.514Z,12.13
2022-11-29T05:51:25.416Z,12.88
2022-11-29T05:54:00.805Z,12.82
2022-11-29T05:56:41.970Z,11.23
2022-11-29T05:59:12.791Z,12.52
2022-11-29T06:01:49.179Z,12.05
2022-11-29T06:04:20.361Z,12.68
2022-11-29T06:06:53.666Z,12.10
2022-11-29T06:09:27.288Z,12.23
2022-11-29T06:12:00.382Z,12.57
2022-11-29T06:14:47.236Z,12.00
2022-11-29T06:17:43.126Z,11.90
2022-11-29T06:20:23.284Z,11.85
2022-11-29T06:23:02.640Z,12.15
2022-11-29T06:25:43.161Z,12.02
2022-11-29T06:28:28.428Z,12.10
2022-11-29T06:30:59.934Z,12.88
2022-11-29T06:33:34.916Z,11.63
2022-11-29T06:36:13.946Z,11.80
2022-11-29T06:38:41.032Z,12.07
2022-11-29T06:41:16.444Z,12.32
2022-11-29T06:43:44.392Z,12.27
2022-11-29T06:46:18.821Z,12.98
2022-11-29T06:48:51.628Z,12.35
2022-11-29T06:51:25.697Z,11.40
2022-11-29T06:54:03.722Z,11.90
2022-11-29T06:56:41.010Z,12.07
2022-11-29T06:59:17.340Z,13.20
2022-11-29T07:01:48.129Z,12.23
2022-11-29T07:04:45.904Z,12.10
2022-11-29T07:07:15.435Z,12.75
2022-11-29T07:09:52.123Z,12.40
2022-11-29T07:12:19.404Z,12.35
2022-11-29T07:14:46.679Z,13.02
2022-11-29T07:17:18.816Z,12.30
2022-11-29T07:19:57.096Z,12.23
2022-11-29T07:22:43.858Z,12.30
2022-11-29T07:25:24.582Z,11.73
2022-11-29T07:28:02.194Z,12.00
2022-11-29T07:30:39.927Z,12.23
2022-11-29T07:33:17.709Z,13.15
2022-11-29T07:35:52.187Z,12.95
2022-11-29T07:38:25.654Z,12.88
2022-11-29T07:41:00.166Z,11.90
2022-11-29T07:43:38.900Z,11.88
2022-11-29T07:46:05.932Z,12.80
2022-11-29T07:48:32.935Z,12.55
2022-11-29T07:51:00.892Z,13.15
2022-11-29T07:53:28.122Z,13.10
2022-11-29T07:55:57.263Z,13.05
2022-11-29T07:58:24.666Z,11.93
2022-11-29T08:00:53.674Z,11.43
2022-11-29T08:03:20.353Z,11.80
2022-11-29T08:05:50.135Z,12.85
2022-11-29T08:08:16.868Z,12.63
2022-11-29T08:10:43.611Z,12.05
2022-11-29T08:13:11.765Z,11.75
2022-11-29T08:15:43.941Z,12.50
2022-11-29T08:18:10.598Z,12.70
2022-11-29T08:20:39.685Z,11.88
2022-11-29T08:23:06.362Z,11.90
2022-11-29T08:25:33.067Z,13.18
2022-11-29T08:28:05.185Z,12.82
2022-11-29T08:30:36.941Z,12.52
2022-11-29T08:33:04.075Z,12.07
2022-11-29T08:35:30.770Z,13.07
2022-11-29T08:37:57.451Z,13.30
2022-11-29T08:40:24.294Z,12.63
2022-11-29T08:42:51.170Z,12.98
2022-11-29T08:45:18.090Z,12.30
2022-11-29T08:47:46.140Z,12.25
2022-11-29T08:50:14.796Z,12.50
2022-11-29T08:52:43.528Z,12.60
2022-11-29T08:55:10.473Z,12.23
2022-11-29T08:57:40.597Z,12.70
2022-11-29T09:00:10.097Z,12.45
2022-11-29T09:02:37.195Z,12.35
2022-11-29T09:05:06.393Z,13.27
2022-11-29T09:07:33.392Z,11.93
2022-11-29T09:10:02.880Z,12.30
2022-11-29T09:12:29.515Z,11.15
2022-11-29T09:14:56.141Z,11.85
2022-11-29T09:17:22.828Z,13.32
2022-11-29T09:19:49.566Z,13.40
2022-11-29T09:22:17.777Z,13.88
2022-11-29T09:24:44.644Z,11.35
2022-11-29T09:27:11.983Z,10.38
2022-11-29T09:29:38.624Z,11.52
2022-11-29T09:32:06.883Z,12.57
2022-11-29T09:34:33.653Z,13.32
2022-11-29T09:37:00.387Z,14.15
2022-11-29T09:39:28.490Z,13.18
2022-11-29T09:42:26.424Z,12.60
2022-11-29T09:45:02.824Z,12.13
2022-11-29T09:47:52.079Z,11.65
2022-11-29T09:50:28.189Z,12.75
2022-11-29T09:53:15.654Z,10.98
2022-11-29T09:55:53.354Z,11.48
2022-11-29T09:58:24.613Z,12.05
2022-11-29T10:00:54.850Z,12.63
2022-11-29T10:03:26.345Z,11.52
2022-11-29T10:05:58.182Z,11.55
2022-11-29T10:08:31.390Z,11.20
2022-11-29T10:11:22.886Z,10.82
2022-11-29T10:13:54.376Z,11.15
2022-11-29T10:16:30.673Z,11.30
2022-11-29T10:19:04.500Z,11.38
2022-11-29T10:21:36.337Z,10.70
2022-11-29T10:24:07.006Z,10.82
2022-11-29T10:26:35.610Z,10.20
2022-11-29T10:29:02.443Z,10.55
2022-11-29T10:31:32.812Z,11.02
2022-11-29T10:34:02.550Z,11.60
2022-11-29T10:36:36.566Z,11.25
2022-11-29T10:39:14.294Z,11.27
2022-11-29T10:41:43.049Z,11.30
2022-11-29T10:44:14.289Z,10.63
2022-11-29T10:46:41.408Z,9.75
2022-11-29T10:49:13.366Z,9.50
2022-11-29T10:51:40.193Z,9.27
2022-11-29T10:54:21.729Z,9.82
2022-11-29T10:56:50.224Z,9.40
2022-11-29T10:59:22.474Z,8.48
2022-11-29T11:01:49.540Z,8.85
2022-11-29T11:04:26.522Z,8.18
2022-11-29T11:06:54.757Z,8.05
2022-11-29T11:09:26.870Z,7.72
2022-11-29T11:12:02.394Z,7.93
2022-11-29T11:14:30.570Z,9.70
2022-11-29T11:17:19.254Z,9.20
2022-11-29T11:19:54.796Z,8.82
2022-11-29T11:22:27.493Z,11.18
2022-11-29T11:24:59.770Z,8.88
2022-11-29T11:27:33.198Z,7.78
2022-11-29T11:30:01.133Z,7.45
2022-11-29T11:32:27.853Z,7.30
2022-11-29T11:34:55.823Z,8.02
2022-11-29T11:37:24.551Z,8.88
2022-11-29T11:39:54.400Z,8.05
2022-11-29T11:42:23.001Z,7.57
2022-11-29T11:44:51.778Z,8.32
2022-11-29T11:47:21.203Z,6.68
2022-11-29T11:49:50.006Z,7.32
2022-11-29T11:52:25.174Z,6.93
2022-11-29T11:54:55.338Z,8.15
2022-11-29T11:57:26.770Z,7.63
2022-11-29T11:59:56.341Z,7.15
2022-11-29T12:02:28.703Z,7.45
2022-11-29T12:04:58.932Z,7.10
2022-11-29T12:08:06.261Z,7.47
2022-11-29T12:10:26.913Z,7.05
2022-11-29T12:12:55.740Z,7.15
2022-11-29T12:15:28.240Z,7.10
2022-11-29T12:18:01.903Z,7.20
2022-11-29T12:20:33.753Z,8.73
2022-11-29T12:23:13.665Z,7.72
2022-11-29T12:25:45.739Z,8.13
2022-11-29T12:28:19.859Z,7.80
2022-11-29T12:30:54.765Z,7.57
2022-11-29T12:33:33.029Z,7.53
2022-11-29T12:36:20.242Z,7.00
2022-11-29T12:39:06.608Z,6.20
2022-11-29T12:41:43.808Z,7.05
2022-11-29T12:44:23.662Z,6.32
2022-11-29T12:49:57.336Z,6.85
2022-11-29T12:52:31.996Z,7.65
2022-11-29T12:55:08.150Z,7.07
2022-11-29T12:57:43.579Z,7.93
2022-11-29T13:00:17.615Z,8.45
2022-11-29T13:03:03.762Z,7.97
2022-11-29T13:05:54.566Z,7.55
2022-11-29T13:08:46.341Z,7.15
2022-11-29T13:11:19.258Z,7.95
2022-11-29T13:13:49.055Z,7.22
2022-11-29T13:16:31.650Z,8.27
2022-11-29T13:19:07.145Z,8.18
2022-11-29T13:21:40.147Z,7.97
2022-11-29T13:24:11.076Z,8.93
2022-11-29T13:26:39.987Z,9.32
2022-11-29T13:29:11.409Z,8.57
2022-11-29T13:31:38.835Z,8.48
2022-11-29T13:34:12.289Z,8.20
2022-11-29T13:36:48.063Z,8.10
2022-11-29T13:39:27.624Z,7.90
2022-11-29T13:42:02.141Z,8.18
2022-11-29T13:44:37.051Z,7.82
2022-11-29T13:47:06.763Z,8.07
2022-11-29T13:49:58.978Z,7.43
2022-11-29T13:52:40.999Z,7.07
2022-11-29T13:55:23.290Z,7.60
2022-11-29T14:00:50.232Z,8.02
2022-11-29T14:03:29.280Z,7.78
2022-11-29T14:06:17.333Z,7.65
2022-11-29T14:09:21.409Z,7.78
2022-11-29T14:11:51.692Z,7.60
2022-11-29T14:14:24.475Z,8.07
2022-11-29T14:16:56.999Z,8.10
2022-11-29T14:19:28.861Z,7.78
2022-11-29T14:22:25.200Z,7.72
2022-11-29T14:25:16.601Z,7.93
2022-11-29T14:28:03.088Z,8.20
2022-11-29T14:30:47.923Z,7.32
2022-11-29T14:33:56.002Z,7.45
2022-11-29T14:36:42.244Z,7.75
2022-11-29T14:39:23.965Z,8.13
2022-11-29T14:42:03.789Z,8.18
2022-11-29T14:44:32.177Z,7.88
2022-11-29T14:47:02.682Z,9.60
2022-11-29T14:49:31.640Z,8.80
2022-11-29T14:52:21.037Z,9.20
2022-11-29T14:54:58.315Z,8.35
2022-11-29T14:58:15.823Z,8.50
2022-11-29T15:01:08.076Z,8.45
2022-11-29T15:03:42.377Z,8.32
2022-11-29T15:06:14.547Z,8.65
2022-11-29T15:08:50.305Z,9.57
2022-11-29T15:11:33.093Z,8.35
2022-11-29T15:14:04.537Z,8.18
2022-11-29T15:16:52.299Z,8.25
2022-11-29T15:20:06.462Z,9.05
2022-11-29T15:22:46.705Z,8.63
2022-11-29T15:25:17.126Z,9.35
2022-11-29T15:27:53.565Z,9.07
2022-11-29T15:30:32.128Z,10.05
2022-11-29T15:33:00.219Z,9.45
2022-11-29T15:35:27.733Z,10.15
2022-11-29T15:37:54.872Z,10.30
2022-11-29T15:40:23.318Z,10.60
2022-11-29T15:42:55.319Z,10.32
2022-11-29T15:45:28.248Z,9.40
2022-11-29T15:48:11.859Z,8.65
2022-11-29T15:50:41.422Z,9.05
2022-11-29T15:53:15.079Z,9.07
2022-11-29T15:55:42.778Z,9.27
2022-11-29T15:58:13.657Z,8.82
2022-11-29T16:00:40.614Z,9.15
2022-11-29T16:03:17.806Z,9.23
2022-11-29T16:05:50.418Z,8.88
2022-11-29T16:08:19.764Z,8.48
2022-11-29T16:10:48.515Z,9.00
2022-11-29T16:13:32.378Z,8.50
2022-11-29T16:16:09.345Z,7.80
2022-11-29T16:18:37.506Z,7.00
2022-11-29T16:21:05.914Z,6.70
2022-11-29T16:23:33.748Z,6.47
2022-11-29T16:26:13.075Z,7.10
2022-11-29T16:28:45.550Z,6.82
2022-11-29T16:31:18.174Z,7.38
2022-11-29T16:33:45.914Z,6.70
2022-11-29T16:36:16.373Z,7.57
2022-11-29T16:38:45.916Z,7.97
2022-11-29T16:41:22.786Z,6.55
2022-11-29T16:43:53.695Z,7.15
2022-11-29T16:46:29.900Z,7.47
2022-11-29T16:48:58.321Z,7.57
2022-11-29T16:51:26.534Z,6.78
2022-11-29T16:53:54.245Z,8.13
2022-11-29T16:56:23.333Z,7.30
2022-11-29T16:59:25.219Z,7.60
2022-11-29T17:01:40.320Z,7.50
2022-11-29T17:04:09.020Z,7.57
2022-11-29T17:06:35.874Z,7.22
2022-11-29T17:09:03.019Z,6.97
2022-11-29T17:11:29.659Z,7.60
2022-11-29T17:13:58.114Z,9.10
2022-11-29T17:16:24.970Z,9.68
2022-11-29T17:18:51.936Z,9.50
2022-11-29T17:21:19.413Z,9.93
2022-11-29T17:23:46.453Z,9.93
2022-11-29T17:26:13.187Z,9.23
2022-11-29T17:28:40.137Z,9.70
2022-11-29T17:31:12.630Z,10.57
2022-11-29T17:33:39.490Z,10.10
2022-11-29T17:36:07.057Z,9.05
2022-11-29T17:38:33.918Z,9.77
2022-11-29T17:41:06.330Z,9.07
2022-11-29T17:43:33.372Z,10.63
2022-11-29T17:46:00.176Z,9.05
2022-11-29T17:48:33.387Z,8.50
2022-11-29T17:51:01.037Z,8.23
2022-11-29T17:53:27.758Z,8.07
2022-11-29T17:55:54.450Z,7.50
2022-11-29T17:58:21.223Z,7.50
2022-11-29T18:00:47.841Z,7.65
2022-11-29T18:03:14.555Z,7.90
2022-11-29T18:05:42.693Z,6.70
2022-11-29T18:08:09.333Z,7.72
2022-11-29T18:10:36.036Z,7.63
2022-11-29T18:13:02.689Z,7.75
2022-11-29T18:15:29.387Z,7.97
2022-11-29T18:17:56.114Z,8.68
2022-11-29T18:20:22.779Z,8.40
2022-11-29T18:22:50.845Z,9.63
2022-11-29T18:25:38.341Z,11.32
2022-11-29T18:28:04.611Z,10.80
2022-11-29T18:30:31.318Z,11.90
2022-11-29T18:32:57.988Z,13.65
2022-11-29T18:35:24.667Z,13.00
2022-11-29T18:38:15.397Z,12.68
2022-11-29T18:40:39.505Z,13.52
2022-11-29T18:43:06.231Z,12.90
2022-11-29T18:45:35.119Z,12.55
2022-11-29T18:48:01.775Z,14.93
2022-11-29T18:50:28.536Z,13.52
2022-11-29T18:52:56.672Z,12.70
2022-11-29T18:55:23.358Z,12.52
2022-11-29T18:57:50.331Z,12.98
2022-11-29T19:00:17.429Z,12.60
2022-11-29T19:02:44.135Z,12.43
2022-11-29T19:05:10.806Z,11.75
2022-11-29T19:07:37.534Z,12.45
2022-11-29T19:10:07.411Z,12.60
2022-11-29T19:12:34.223Z,13.15
2022-11-29T19:15:00.851Z,14.52
2022-11-29T19:17:27.569Z,16.50
2022-11-29T19:19:54.184Z,15.88
2022-11-29T19:22:20.910Z,14.43
2022-11-29T19:24:47.823Z,12.95
2022-11-29T19:27:15.979Z,12.50
2022-11-29T19:29:42.615Z,13.18
2022-11-29T19:32:09.320Z,12.75
2022-11-29T19:34:35.971Z,13.10
2022-11-29T19:37:02.722Z,12.93
2022-11-29T19:39:29.392Z,13.27
2022-11-29T19:41:56.081Z,12.80
2022-11-29T19:44:29.276Z,14.02
2022-11-29T19:46:56.723Z,13.27
2022-11-29T19:49:23.488Z,12.95
2022-11-29T19:51:50.131Z,13.40
2022-11-29T19:54:16.793Z,12.65
2022-11-29T19:56:43.772Z,13.85
2022-11-29T19:59:10.790Z,14.13
2022-11-29T20:01:41.896Z,13.80
2022-11-29T20:04:10.940Z,14.68
2022-11-29T20:06:38.145Z,14.48
2022-11-29T20:09:05.060Z,13.55
2022-11-29T20:11:31.876Z,14.93
2022-11-29T20:13:59.943Z,13.95
2022-11-29T20:16:27.637Z,13.02
2022-11-29T20:18:56.433Z,13.07
2022-11-29T20:21:24.979Z,12.77
2022-11-29T20:23:55.753Z,11.38
2022-11-29T20:26:22.509Z,11.63
2022-11-29T20:28:49.267Z,10.95
2022-11-29T20:31:17.878Z,11.95
2022-11-29T20:33:46.247Z,10.70
2022-11-29T20:36:25.472Z,11.48
2022-11-29T20:38:57.795Z,11.40
2022-11-29T20:41:33.237Z,11.45
2022-11-29T20:44:02.033Z,11.88
2022-11-29T20:46:29.489Z,12.38
2022-11-29T20:48:59.405Z,12.15
2022-11-29T20:51:41.418Z,11.70
2022-11-29T20:54:09.962Z,11.90
2022-11-29T20:56:36.732Z,12.82
2022-11-29T20:59:03.515Z,13.48
2022-11-29T21:01:30.206Z,14.35
2022-11-29T21:03:56.887Z,13.70
2022-11-29T21:06:23.761Z,14.18
2022-11-29T21:08:51.776Z,14.43
2022-11-29T21:11:18.988Z,15.38
2022-11-29T21:13:46.169Z,14.27
2022-11-29T21:16:14.091Z,13.85
2022-11-29T21:18:41.301Z,14.70
2022-11-29T21:21:17.167Z,15.63
2022-11-29T21:23:56.615Z,14.15
2022-11-29T21:26:29.305Z,13.88
2022-11-29T21:29:05.940Z,13.48
2022-11-29T21:31:33.177Z,14.35
2022-11-29T21:34:00.400Z,15.00
2022-11-29T21:36:27.255Z,14.88
2022-11-29T21:38:55.702Z,15.45
2022-11-29T21:41:22.514Z,15.38
2022-11-29T21:46:36.052Z,14.80
2022-11-29T21:49:02.859Z,15.32
2022-11-29T21:51:29.509Z,15.60
2022-11-29T21:53:57.574Z,14.48
2022-11-29T21:56:24.249Z,14.38
2022-11-29T21:58:51.232Z,13.48
2022-11-29T22:01:20.170Z,14.32
2022-11-29T22:03:47.035Z,14.73
2022-11-29T22:06:16.323Z,14.40
2022-11-29T22:08:43.019Z,14.38
2022-11-29T22:11:13.127Z,13.32
2022-11-29T22:13:41.233Z,12.95
2022-11-29T22:16:09.606Z,14.27
2022-11-29T22:18:37.022Z,13.48
2022-11-29T22:21:05.894Z,13.48
2022-11-29T22:23:33.092Z,14.32
2022-11-29T22:26:04.294Z,13.88
2022-11-29T22:28:32.935Z,13.68
2022-11-29T22:31:04.911Z,14.05
2022-11-29T22:33:32.370Z,13.52
2022-11-29T22:36:02.640Z,13.85
2022-11-29T22:38:29.407Z,14.30
2022-11-29T22:40:59.471Z,13.90
2022-11-29T22:43:26.189Z,13.07
2022-11-29T22:45:54.254Z,12.65
2022-11-29T22:48:20.973Z,12.85
2022-11-29T22:50:47.645Z,12.77
2022-11-29T22:53:14.348Z,13.38
2022-11-29T22:55:41.006Z,12.65
2022-11-29T22:58:07.653Z,13.73
2022-11-29T23:00:34.425Z,11.70
2022-11-29T23:03:02.558Z,12.77
2022-11-29T23:05:32.206Z,12.38
2022-11-29T23:07:59.258Z,11.65
2022-11-29T23:10:26.045Z,12.15
2022-11-29T23:12:52.988Z,12.43
2022-11-29T23:15:19.671Z,13.48
2022-11-29T23:17:46.326Z,12.13
2022-11-29T23:20:14.666Z,12.18
2022-11-29T23:22:41.292Z,11.50
2022-11-29T23:25:08.330Z,11.77
2022-11-29T23:27:34.932Z,11.57
2022-11-29T23:30:01.614Z,12.45
2022-11-29T23:32:28.260Z,12.15
2022-11-29T23:34:54.915Z,12.85
2022-11-29T23:37:22.984Z,12.15
2022-11-29T23:39:49.662Z,12.43
2022-11-29T23:42:16.350Z,12.75
2022-11-29T23:44:43.105Z,12.43
2022-11-29T23:47:09.791Z,12.52
2022-11-29T23:49:36.510Z,11.98
2022-11-29T23:52:03.273Z,12.40
2022-11-29T23:54:31.309Z,11.85
2022-11-29T23:56:58.014Z,12.07
2022-11-29T23:59:24.675Z,12.05
